SAS7707 EKCH-HEGN
Flight info
| Callsign | SAS7707 |
|---|---|
| Flight time | N/A |
| Altitude | 37000 |
| Route | SALLO M44 KOGIM M602 BINKA DCT EKBUT DCT OLUMA Y210 PEKOT L616 DESEN DCT OGDAS DCT SAGAN DCT UPIVA DCT PATAK DCT DODAR DCT EBORO DCT PARAK DCT TAZUM DCT NISVA DCT OMENO DCT NIKTI DCT STINO/N0448F390 DCT KERMA UL618 MES UL609 RDS UL995 VANZA DCT RASDA A16 CVO L315 HGD |
| Aircraft | A20N/M-SDE3FGIJ1RWXY/ALB1 |
Departure
| Time | 2026-04-22 16:33 |
|---|---|
| Airport | Copenhagen Kastrup Airport (EKCH) |
Arrival
| Time | N/A |
|---|---|
| Airport | Hurghada International Airport (HEGN) |
| Time | Latitude | Longitude | Altitude | Speed | Heading |
|---|---|---|---|---|---|
| 2026-04-22 15:32 | 55.62645 | 12.64559 | 18 ft | 0 kts | 282° |
| 2026-04-22 16:19 | 55.62645 | 12.64562 | 18 ft | 2 kts | 282° |
| 2026-04-22 16:19 | 55.62642 | 12.64589 | 18 ft | 2 kts | 282° |
| 2026-04-22 16:19 | 55.62638 | 12.64615 | 18 ft | 2 kts | 282° |
| 2026-04-22 16:20 | 55.62636 | 12.64638 | 18 ft | 0 kts | 282° |
| 2026-04-22 16:20 | 55.62635 | 12.64658 | 18 ft | 2 kts | 243° |
| 2026-04-22 16:20 | 55.62645 | 12.64675 | 18 ft | 0 kts | 197° |
| 2026-04-22 16:20 | 55.62646 | 12.64675 | 18 ft | 1 kts | 202° |
| 2026-04-22 16:21 | 55.62623 | 12.64663 | 18 ft | 1 kts | 194° |
| 2026-04-22 16:21 | 55.62617 | 12.64661 | 18 ft | 0 kts | 192° |
| 2026-04-22 16:24 | 55.62598 | 12.64655 | 18 ft | 7 kts | 187° |
| 2026-04-22 16:24 | 55.62526 | 12.64647 | 18 ft | 10 kts | 184° |
| 2026-04-22 16:25 | 55.62446 | 12.64670 | 17 ft | 12 kts | 175° |
| 2026-04-22 16:25 | 55.62278 | 12.64784 | 15 ft | 14 kts | 161° |
| 2026-04-22 16:25 | 55.62176 | 12.64732 | 15 ft | 17 kts | 215° |
| 2026-04-22 16:26 | 55.62059 | 12.64594 | 15 ft | 20 kts | 214° |
| 2026-04-22 16:26 | 55.61927 | 12.64502 | 15 ft | 20 kts | 178° |
| 2026-04-22 16:26 | 55.61789 | 12.64540 | 15 ft | 19 kts | 170° |
| 2026-04-22 16:26 | 55.61655 | 12.64545 | 15 ft | 19 kts | 210° |
| 2026-04-22 16:27 | 55.61546 | 12.64412 | 15 ft | 18 kts | 216° |
| 2026-04-22 16:27 | 55.61437 | 12.64278 | 16 ft | 18 kts | 215° |
| 2026-04-22 16:27 | 55.61328 | 12.64165 | 15 ft | 18 kts | 213° |
| 2026-04-22 16:27 | 55.61226 | 12.64047 | 16 ft | 17 kts | 214° |
| 2026-04-22 16:28 | 55.61121 | 12.63924 | 16 ft | 17 kts | 213° |
| 2026-04-22 16:28 | 55.61017 | 12.63806 | 16 ft | 18 kts | 213° |
| 2026-04-22 16:28 | 55.60915 | 12.63688 | 17 ft | 17 kts | 213° |
| 2026-04-22 16:28 | 55.60810 | 12.63565 | 15 ft | 18 kts | 214° |
| 2026-04-22 16:29 | 55.60703 | 12.63443 | 15 ft | 17 kts | 213° |
| 2026-04-22 16:29 | 55.60679 | 12.63416 | 15 ft | 0 kts | 213° |
| 2026-04-22 16:30 | 55.60676 | 12.63412 | 15 ft | 2 kts | 213° |
| 2026-04-22 16:30 | 55.60638 | 12.63364 | 14 ft | 13 kts | 220° |
| 2026-04-22 16:30 | 55.60563 | 12.63250 | 13 ft | 13 kts | 221° |
| 2026-04-22 16:31 | 55.60482 | 12.63222 | 14 ft | 12 kts | 145° |
| 2026-04-22 16:31 | 55.60417 | 12.63354 | 12 ft | 15 kts | 131° |
| 2026-04-22 16:31 | 55.60416 | 12.63471 | 12 ft | 0 kts | 43° |
| 2026-04-22 16:32 | 55.60436 | 12.63504 | 12 ft | 13 kts | 42° |
| 2026-04-22 16:32 | 55.60673 | 12.63871 | 15 ft | 80 kts | 40° |
| 2026-04-22 16:33 | 55.61254 | 12.64774 | 15 ft | 141 kts | 39° |
| 2026-04-22 16:33 | 55.62107 | 12.66098 | 163 ft | 175 kts | 34° |
| 2026-04-22 16:33 | 55.63031 | 12.67564 | 704 ft | 179 kts | 36° |
| 2026-04-22 16:33 | 55.63976 | 12.69074 | 1307 ft | 184 kts | 34° |
| 2026-04-22 16:34 | 55.64986 | 12.70624 | 1765 ft | 199 kts | 34° |
| 2026-04-22 16:34 | 55.66088 | 12.72268 | 2196 ft | 215 kts | 34° |
| 2026-04-22 16:34 | 55.67329 | 12.74091 | 2561 ft | 239 kts | 34° |
| 2026-04-22 16:34 | 55.68649 | 12.76042 | 3057 ft | 257 kts | 36° |
| 2026-04-22 16:35 | 55.69894 | 12.78514 | 3554 ft | 280 kts | 63° |
| 2026-04-22 16:35 | 55.70239 | 12.81949 | 4330 ft | 288 kts | 99° |
| 2026-04-22 16:35 | 55.69484 | 12.85154 | 5189 ft | 284 kts | 134° |
| 2026-04-22 16:35 | 55.67896 | 12.87150 | 6024 ft | 276 kts | 165° |
| 2026-04-22 16:36 | 55.66055 | 12.88079 | 6875 ft | 275 kts | 171° |
| 2026-04-22 16:36 | 55.64181 | 12.88908 | 7669 ft | 279 kts | 169° |
| 2026-04-22 16:36 | 55.62280 | 12.89885 | 8177 ft | 295 kts | 167° |
| 2026-04-22 16:36 | 55.60228 | 12.91097 | 8576 ft | 314 kts | 165° |
| 2026-04-22 16:37 | 55.58105 | 12.92462 | 8946 ft | 332 kts | 163° |
| 2026-04-22 16:37 | 55.55897 | 12.93952 | 9348 ft | 347 kts | 162° |
| 2026-04-22 16:37 | 55.53621 | 12.95528 | 10079 ft | 351 kts | 162° |
| 2026-04-22 16:37 | 55.51336 | 12.97131 | 10898 ft | 352 kts | 162° |
| 2026-04-22 16:38 | 55.49039 | 12.98745 | 11653 ft | 354 kts | 162° |
| 2026-04-22 16:38 | 55.46709 | 13.00384 | 12380 ft | 356 kts | 161° |
| 2026-04-22 16:38 | 55.44392 | 13.02016 | 13052 ft | 359 kts | 161° |
| 2026-04-22 16:38 | 55.42024 | 13.03682 | 13705 ft | 363 kts | 161° |
| 2026-04-22 16:39 | 55.39608 | 13.05379 | 14233 ft | 370 kts | 161° |
| 2026-04-22 16:39 | 55.37168 | 13.07091 | 14783 ft | 375 kts | 161° |
| 2026-04-22 16:39 | 55.34678 | 13.08836 | 15398 ft | 379 kts | 161° |
| 2026-04-22 16:39 | 55.32191 | 13.10578 | 15986 ft | 382 kts | 162° |
| 2026-04-22 16:40 | 55.29698 | 13.12322 | 16552 ft | 386 kts | 162° |
| 2026-04-22 16:40 | 55.27163 | 13.14091 | 17110 ft | 389 kts | 162° |
| 2026-04-22 16:40 | 55.22012 | 13.17680 | 18197 ft | 396 kts | 162° |
| 2026-04-22 16:41 | 55.19432 | 13.19473 | 18715 ft | 399 kts | 162° |
| 2026-04-22 16:41 | 55.16792 | 13.21307 | 19225 ft | 402 kts | 162° |
| 2026-04-22 16:41 | 55.14144 | 13.23142 | 19722 ft | 406 kts | 162° |
| 2026-04-22 16:41 | 55.11470 | 13.24994 | 20208 ft | 409 kts | 162° |
| 2026-04-22 16:42 | 55.08771 | 13.26860 | 20684 ft | 412 kts | 162° |
| 2026-04-22 16:42 | 55.06049 | 13.28739 | 21149 ft | 415 kts | 162° |
| 2026-04-22 16:42 | 55.03334 | 13.30610 | 21597 ft | 418 kts | 162° |
| 2026-04-22 16:42 | 55.00591 | 13.32498 | 22024 ft | 422 kts | 162° |
| 2026-04-22 16:43 | 54.97825 | 13.34398 | 22420 ft | 426 kts | 162° |
| 2026-04-22 16:43 | 54.94995 | 13.36315 | 22803 ft | 429 kts | 164° |
| 2026-04-22 16:43 | 54.92119 | 13.37952 | 23166 ft | 431 kts | 168° |
| 2026-04-22 16:43 | 54.89177 | 13.39216 | 23520 ft | 433 kts | 172° |
| 2026-04-22 16:44 | 54.86167 | 13.40125 | 23867 ft | 435 kts | 175° |
| 2026-04-22 16:44 | 54.83148 | 13.40934 | 24228 ft | 438 kts | 175° |
| 2026-04-22 16:44 | 54.80051 | 13.41759 | 24595 ft | 441 kts | 175° |
| 2026-04-22 16:44 | 54.76998 | 13.42575 | 24942 ft | 444 kts | 175° |
| 2026-04-22 16:45 | 54.73909 | 13.43402 | 25281 ft | 447 kts | 175° |
| 2026-04-22 16:45 | 54.70804 | 13.44235 | 25607 ft | 450 kts | 175° |
| 2026-04-22 16:45 | 54.67691 | 13.45068 | 25925 ft | 453 kts | 175° |
| 2026-04-22 16:45 | 54.64532 | 13.45912 | 26234 ft | 455 kts | 175° |
| 2026-04-22 16:46 | 54.61383 | 13.46753 | 26526 ft | 458 kts | 175° |
| 2026-04-22 16:46 | 54.58195 | 13.47603 | 26804 ft | 460 kts | 175° |
| 2026-04-22 16:46 | 54.55011 | 13.48452 | 27066 ft | 463 kts | 175° |
| 2026-04-22 16:46 | 54.51837 | 13.49295 | 27328 ft | 465 kts | 175° |
| 2026-04-22 16:47 | 54.48606 | 13.50142 | 27573 ft | 467 kts | 176° |
| 2026-04-22 16:47 | 54.45383 | 13.50959 | 27816 ft | 469 kts | 176° |
| 2026-04-22 16:47 | 54.43221 | 13.51502 | 28023 ft | 469 kts | 176° |
| 2026-04-22 16:47 | 54.38894 | 13.52589 | 28481 ft | 468 kts | 176° |
| 2026-04-22 16:48 | 54.35635 | 13.53498 | 28805 ft | 470 kts | 173° |
| 2026-04-22 16:48 | 54.32435 | 13.54831 | 29114 ft | 474 kts | 168° |
| 2026-04-22 16:48 | 54.29287 | 13.56671 | 29543 ft | 474 kts | 162° |
| 2026-04-22 16:48 | 54.26258 | 13.58980 | 30086 ft | 472 kts | 158° |
| 2026-04-22 16:49 | 54.23338 | 13.61477 | 30612 ft | 468 kts | 157° |
| 2026-04-22 16:49 | 54.20421 | 13.64009 | 31043 ft | 466 kts | 157° |
| 2026-04-22 16:49 | 54.17513 | 13.66519 | 31408 ft | 465 kts | 158° |
| 2026-04-22 16:49 | 54.14668 | 13.69094 | 31724 ft | 466 kts | 155° |
| 2026-04-22 16:50 | 54.11862 | 13.71976 | 32032 ft | 468 kts | 151° |
| 2026-04-22 16:50 | 54.09158 | 13.75149 | 32327 ft | 470 kts | 147° |
| 2026-04-22 16:50 | 54.06561 | 13.78614 | 32603 ft | 473 kts | 143° |
| 2026-04-22 16:50 | 54.04098 | 13.82341 | 32863 ft | 475 kts | 140° |
| 2026-04-22 16:51 | 54.01731 | 13.86201 | 33122 ft | 475 kts | 139° |
| 2026-04-22 16:51 | 53.99306 | 13.90176 | 33396 ft | 475 kts | 139° |
| 2026-04-22 16:51 | 53.96912 | 13.94070 | 33619 ft | 476 kts | 139° |
| 2026-04-22 16:51 | 53.94504 | 13.97959 | 33815 ft | 478 kts | 140° |
| 2026-04-22 16:52 | 53.92084 | 14.01840 | 34007 ft | 479 kts | 140° |
| 2026-04-22 16:52 | 53.89648 | 14.05736 | 34199 ft | 480 kts | 140° |
| 2026-04-22 16:52 | 53.87197 | 14.09651 | 34381 ft | 481 kts | 140° |
| 2026-04-22 16:52 | 53.84731 | 14.13585 | 34567 ft | 481 kts | 140° |
| 2026-04-22 16:53 | 53.82286 | 14.17480 | 34740 ft | 482 kts | 140° |
| 2026-04-22 16:53 | 53.79757 | 14.21337 | 34905 ft | 482 kts | 143° |
| 2026-04-22 16:53 | 53.77134 | 14.24889 | 35061 ft | 481 kts | 147° |
| 2026-04-22 16:53 | 53.74407 | 14.28129 | 35207 ft | 480 kts | 150° |
| 2026-04-22 16:54 | 53.71462 | 14.31174 | 35228 ft | 479 kts | 154° |
| 2026-04-22 16:54 | 53.66576 | 14.35389 | 35234 ft | 476 kts | 158° |
| 2026-04-22 16:55 | 53.60594 | 14.40289 | 35234 ft | 476 kts | 158° |
| 2026-04-22 16:55 | 53.54652 | 14.45176 | 35234 ft | 477 kts | 158° |
| 2026-04-22 16:56 | 53.48692 | 14.50081 | 35232 ft | 476 kts | 158° |
| 2026-04-22 16:56 | 53.42756 | 14.54953 | 35227 ft | 476 kts | 158° |
| 2026-04-22 16:57 | 53.36809 | 14.59818 | 35221 ft | 476 kts | 158° |
| 2026-04-22 16:57 | 53.30800 | 14.64720 | 35216 ft | 477 kts | 158° |
| 2026-04-22 16:58 | 53.25825 | 14.68767 | 35212 ft | 476 kts | 159° |
| 2026-04-22 16:58 | 53.18855 | 14.74418 | 35210 ft | 476 kts | 159° |
| 2026-04-22 16:59 | 53.12825 | 14.79291 | 35209 ft | 476 kts | 159° |
| 2026-04-22 16:59 | 53.06825 | 14.84135 | 35202 ft | 483 kts | 160° |
| 2026-04-22 17:00 | 53.00671 | 14.89080 | 35196 ft | 494 kts | 160° |
| 2026-04-22 17:00 | 52.94362 | 14.94110 | 35204 ft | 505 kts | 160° |
| 2026-04-22 17:00 | 52.91190 | 14.96636 | 35210 ft | 508 kts | 160° |
| 2026-04-22 17:01 | 52.84678 | 15.01822 | 35213 ft | 510 kts | 159° |
| 2026-04-22 17:01 | 52.78200 | 15.06964 | 35213 ft | 505 kts | 158° |
| 2026-04-22 17:02 | 52.71807 | 15.12024 | 35213 ft | 497 kts | 158° |
| 2026-04-22 17:02 | 52.65490 | 15.17015 | 35210 ft | 494 kts | 158° |
| 2026-04-22 17:03 | 52.59275 | 15.21906 | 35210 ft | 494 kts | 158° |
| 2026-04-22 17:03 | 52.53004 | 15.26823 | 35210 ft | 494 kts | 158° |
| 2026-04-22 17:04 | 52.46670 | 15.31772 | 35210 ft | 494 kts | 158° |
| 2026-04-22 17:04 | 52.40421 | 15.36639 | 35210 ft | 494 kts | 158° |
| 2026-04-22 17:05 | 52.34112 | 15.41538 | 35210 ft | 494 kts | 158° |
| 2026-04-22 17:05 | 52.27828 | 15.46402 | 35210 ft | 494 kts | 158° |
| 2026-04-22 17:06 | 52.21593 | 15.51214 | 35210 ft | 494 kts | 158° |
| 2026-04-22 17:06 | 52.15321 | 15.56038 | 35210 ft | 494 kts | 158° |
| 2026-04-22 17:07 | 52.08993 | 15.60891 | 35210 ft | 494 kts | 158° |
| 2026-04-22 17:07 | 52.02746 | 15.65667 | 35209 ft | 494 kts | 158° |
| 2026-04-22 17:08 | 51.96465 | 15.70453 | 35209 ft | 494 kts | 159° |
| 2026-04-22 17:08 | 51.90279 | 15.75442 | 35209 ft | 496 kts | 153° |
| 2026-04-22 17:09 | 51.84413 | 15.81609 | 35210 ft | 499 kts | 147° |
| 2026-04-22 17:09 | 51.78755 | 15.88222 | 35210 ft | 499 kts | 146° |
| 2026-04-22 17:10 | 51.73124 | 15.94772 | 35210 ft | 499 kts | 147° |
| 2026-04-22 17:10 | 51.67486 | 16.01285 | 35210 ft | 499 kts | 147° |
| 2026-04-22 17:11 | 51.61863 | 16.07749 | 35210 ft | 499 kts | 147° |
| 2026-04-22 17:11 | 51.56196 | 16.14242 | 35209 ft | 498 kts | 147° |
| 2026-04-22 17:12 | 51.50534 | 16.20709 | 35205 ft | 498 kts | 147° |
| 2026-04-22 17:12 | 51.44866 | 16.27163 | 35199 ft | 499 kts | 147° |
| 2026-04-22 17:13 | 51.39187 | 16.33610 | 35192 ft | 499 kts | 147° |
| 2026-04-22 17:13 | 51.34138 | 16.39324 | 35187 ft | 499 kts | 147° |
| 2026-04-22 17:14 | 51.28404 | 16.45794 | 35184 ft | 499 kts | 147° |
| 2026-04-22 17:14 | 51.22670 | 16.52244 | 35182 ft | 499 kts | 147° |
| 2026-04-22 17:15 | 51.16916 | 16.58697 | 35182 ft | 499 kts | 147° |
| 2026-04-22 17:15 | 51.11094 | 16.65206 | 35182 ft | 499 kts | 147° |
| 2026-04-22 17:16 | 51.05285 | 16.71681 | 35181 ft | 499 kts | 147° |
| 2026-04-22 17:16 | 50.99465 | 16.78145 | 35173 ft | 505 kts | 147° |
| 2026-04-22 17:17 | 50.93630 | 16.84598 | 35174 ft | 510 kts | 147° |
| 2026-04-22 17:17 | 50.87714 | 16.91117 | 35176 ft | 516 kts | 146° |
| 2026-04-22 17:18 | 50.81810 | 16.97620 | 35185 ft | 511 kts | 146° |
| 2026-04-22 17:18 | 50.75941 | 17.04071 | 35189 ft | 508 kts | 146° |
| 2026-04-22 17:19 | 50.64254 | 17.16838 | 35182 ft | 505 kts | 145° |
| 2026-04-22 17:20 | 50.52596 | 17.29497 | 35182 ft | 506 kts | 145° |
| 2026-04-22 17:21 | 50.43864 | 17.38921 | 35182 ft | 505 kts | 146° |
| 2026-04-22 17:22 | 50.34586 | 17.47031 | 35182 ft | 504 kts | 158° |
| 2026-04-22 17:23 | 50.24873 | 17.53429 | 35182 ft | 504 kts | 154° |
| 2026-04-22 17:23 | 50.15518 | 17.61070 | 35182 ft | 504 kts | 153° |
| 2026-04-22 17:24 | 50.09240 | 17.66211 | 35181 ft | 504 kts | 154° |
| 2026-04-22 17:24 | 50.02989 | 17.71296 | 35181 ft | 504 kts | 154° |
| 2026-04-22 17:25 | 49.96671 | 17.76417 | 35181 ft | 504 kts | 154° |
| 2026-04-22 17:25 | 49.90382 | 17.81499 | 35182 ft | 505 kts | 154° |
| 2026-04-22 17:26 | 49.84071 | 17.86586 | 35181 ft | 505 kts | 154° |
| 2026-04-22 17:26 | 49.77701 | 17.91706 | 35181 ft | 505 kts | 154° |
| 2026-04-22 17:27 | 49.71327 | 17.96807 | 35182 ft | 505 kts | 154° |
| 2026-04-22 17:27 | 49.64829 | 18.01482 | 35182 ft | 504 kts | 157° |
| 2026-04-22 17:28 | 49.58365 | 18.05966 | 35181 ft | 504 kts | 157° |
| 2026-04-22 17:28 | 49.51796 | 18.10517 | 35181 ft | 504 kts | 157° |
| 2026-04-22 17:29 | 49.45277 | 18.15041 | 35181 ft | 504 kts | 156° |
| 2026-04-22 17:29 | 49.38784 | 18.19753 | 35181 ft | 505 kts | 156° |
| 2026-04-22 17:30 | 49.32286 | 18.24183 | 35177 ft | 503 kts | 160° |
| 2026-04-22 17:30 | 49.25690 | 18.28222 | 35169 ft | 504 kts | 160° |
| 2026-04-22 17:31 | 49.19014 | 18.32325 | 35161 ft | 504 kts | 160° |
| 2026-04-22 17:31 | 49.12426 | 18.36405 | 35158 ft | 504 kts | 159° |
| 2026-04-22 17:32 | 49.05869 | 18.40469 | 35153 ft | 508 kts | 159° |
| 2026-04-22 17:32 | 48.99272 | 18.44544 | 35149 ft | 507 kts | 159° |
| 2026-04-22 17:33 | 48.92683 | 18.48609 | 35153 ft | 510 kts | 158° |
| 2026-04-22 17:33 | 48.86096 | 18.52669 | 35152 ft | 510 kts | 158° |
| 2026-04-22 17:34 | 48.79419 | 18.56772 | 35155 ft | 510 kts | 158° |
| 2026-04-22 17:34 | 48.72819 | 18.60811 | 35156 ft | 510 kts | 158° |
| 2026-04-22 17:35 | 48.66174 | 18.64866 | 35155 ft | 510 kts | 158° |
| 2026-04-22 17:35 | 48.59522 | 18.68913 | 35155 ft | 511 kts | 159° |
| 2026-04-22 17:36 | 48.52886 | 18.72938 | 35155 ft | 511 kts | 159° |
| 2026-04-22 17:36 | 48.46261 | 18.76945 | 35156 ft | 510 kts | 159° |
| 2026-04-22 17:37 | 48.39632 | 18.80942 | 35153 ft | 511 kts | 159° |
| 2026-04-22 17:37 | 48.32997 | 18.84935 | 35147 ft | 510 kts | 159° |
| 2026-04-22 17:38 | 48.26374 | 18.88910 | 35135 ft | 510 kts | 159° |
| 2026-04-22 17:38 | 48.19774 | 18.92855 | 35122 ft | 510 kts | 159° |
| 2026-04-22 17:39 | 48.13114 | 18.96829 | 35111 ft | 510 kts | 159° |
| 2026-04-22 17:40 | 48.03238 | 19.02700 | 35106 ft | 505 kts | 159° |
| 2026-04-22 17:40 | 47.96632 | 19.06611 | 35105 ft | 506 kts | 159° |
| 2026-04-22 17:41 | 47.90023 | 19.10516 | 35104 ft | 506 kts | 159° |
| 2026-04-22 17:41 | 47.83463 | 19.14379 | 35102 ft | 502 kts | 159° |
| 2026-04-22 17:42 | 47.76966 | 19.18197 | 35103 ft | 497 kts | 159° |
| 2026-04-22 17:42 | 47.71594 | 19.21346 | 35101 ft | 493 kts | 159° |
| 2026-04-22 17:43 | 47.64111 | 19.25718 | 35101 ft | 493 kts | 159° |
| 2026-04-22 17:43 | 47.57724 | 19.29442 | 35101 ft | 492 kts | 159° |
| 2026-04-22 17:44 | 47.51336 | 19.33156 | 35100 ft | 493 kts | 159° |
| 2026-04-22 17:44 | 47.44896 | 19.36890 | 35101 ft | 492 kts | 159° |
| 2026-04-22 17:45 | 47.38484 | 19.40598 | 35101 ft | 492 kts | 159° |
| 2026-04-22 17:45 | 47.32073 | 19.44296 | 35100 ft | 492 kts | 159° |
| 2026-04-22 17:46 | 47.25671 | 19.47979 | 35100 ft | 493 kts | 159° |
| 2026-04-22 17:46 | 47.19239 | 19.51669 | 35101 ft | 493 kts | 159° |
| 2026-04-22 17:47 | 47.12804 | 19.55353 | 35101 ft | 493 kts | 159° |
| 2026-04-22 17:47 | 47.06409 | 19.59002 | 35101 ft | 493 kts | 159° |
| 2026-04-22 17:48 | 47.01033 | 19.62063 | 35101 ft | 493 kts | 159° |
| 2026-04-22 17:48 | 46.93521 | 19.66329 | 35100 ft | 494 kts | 159° |
| 2026-04-22 17:49 | 46.87048 | 19.69995 | 35099 ft | 494 kts | 159° |
| 2026-04-22 17:49 | 46.80603 | 19.73637 | 35101 ft | 495 kts | 159° |
| 2026-04-22 17:50 | 46.74155 | 19.77271 | 35101 ft | 495 kts | 159° |
| 2026-04-22 17:50 | 46.67648 | 19.80928 | 35101 ft | 495 kts | 159° |
| 2026-04-22 17:51 | 46.61170 | 19.84560 | 35101 ft | 495 kts | 159° |
| 2026-04-22 17:51 | 46.54703 | 19.88176 | 35101 ft | 495 kts | 159° |
| 2026-04-22 17:52 | 46.48239 | 19.91782 | 35101 ft | 495 kts | 159° |
| 2026-04-22 17:52 | 46.41773 | 19.95379 | 35101 ft | 495 kts | 159° |
| 2026-04-22 17:53 | 46.35293 | 19.98975 | 35101 ft | 495 kts | 159° |
| 2026-04-22 17:53 | 46.28800 | 20.02571 | 35101 ft | 495 kts | 159° |
| 2026-04-22 17:54 | 46.22341 | 20.06138 | 35101 ft | 495 kts | 159° |
| 2026-04-22 17:54 | 46.15921 | 20.09968 | 35100 ft | 495 kts | 154° |
| 2026-04-22 17:55 | 46.10838 | 20.13894 | 35102 ft | 495 kts | 149° |
| 2026-04-22 17:55 | 46.03808 | 20.19687 | 35101 ft | 495 kts | 149° |
| 2026-04-22 17:56 | 45.97798 | 20.24613 | 35104 ft | 495 kts | 149° |
| 2026-04-22 17:56 | 45.91774 | 20.29523 | 35108 ft | 495 kts | 149° |
| 2026-04-22 17:57 | 45.85714 | 20.34445 | 35109 ft | 495 kts | 149° |
| 2026-04-22 17:57 | 45.79665 | 20.39344 | 35112 ft | 495 kts | 149° |
| 2026-04-22 17:58 | 45.73599 | 20.44245 | 35117 ft | 495 kts | 149° |
| 2026-04-22 17:58 | 45.67530 | 20.49137 | 35119 ft | 495 kts | 149° |
| 2026-04-22 17:59 | 45.61494 | 20.53989 | 35118 ft | 495 kts | 149° |
| 2026-04-22 17:59 | 45.55433 | 20.58851 | 35114 ft | 495 kts | 149° |
| 2026-04-22 18:00 | 45.50426 | 20.62856 | 35113 ft | 495 kts | 149° |
| 2026-04-22 18:00 | 45.43352 | 20.68504 | 35115 ft | 495 kts | 150° |
| 2026-04-22 18:01 | 45.37306 | 20.73316 | 35118 ft | 495 kts | 150° |
| 2026-04-22 18:01 | 45.31277 | 20.78103 | 35117 ft | 495 kts | 150° |
| 2026-04-22 18:02 | 45.25216 | 20.82904 | 35113 ft | 495 kts | 150° |
| 2026-04-22 18:02 | 45.19190 | 20.87665 | 35109 ft | 495 kts | 150° |
| 2026-04-22 18:03 | 45.13132 | 20.92444 | 35106 ft | 493 kts | 151° |
| 2026-04-22 18:03 | 45.07019 | 20.97254 | 35104 ft | 489 kts | 151° |
| 2026-04-22 18:04 | 45.00940 | 21.02026 | 35105 ft | 484 kts | 152° |
| 2026-04-22 18:04 | 44.95044 | 21.06641 | 35104 ft | 477 kts | 152° |
| 2026-04-22 18:05 | 44.90225 | 21.10399 | 35101 ft | 472 kts | 152° |
| 2026-04-22 18:05 | 44.83533 | 21.15607 | 35101 ft | 468 kts | 152° |
| 2026-04-22 18:06 | 44.77857 | 21.20081 | 35100 ft | 468 kts | 150° |
| 2026-04-22 18:06 | 44.72326 | 21.25071 | 35101 ft | 469 kts | 148° |
| 2026-04-22 18:07 | 44.67722 | 21.29289 | 35101 ft | 469 kts | 148° |
| 2026-04-22 18:07 | 44.61259 | 21.35190 | 35100 ft | 469 kts | 148° |
| 2026-04-22 18:08 | 44.55682 | 21.40269 | 35100 ft | 469 kts | 148° |
| 2026-04-22 18:08 | 44.50131 | 21.45311 | 35101 ft | 470 kts | 148° |
| 2026-04-22 18:09 | 44.44643 | 21.50283 | 35100 ft | 469 kts | 148° |
| 2026-04-22 18:09 | 44.39097 | 21.55296 | 35100 ft | 469 kts | 148° |
| 2026-04-22 18:10 | 44.33554 | 21.60297 | 35100 ft | 470 kts | 148° |
| 2026-04-22 18:10 | 44.28034 | 21.65264 | 35099 ft | 469 kts | 149° |
| 2026-04-22 18:11 | 44.22530 | 21.70205 | 35095 ft | 469 kts | 149° |
| 2026-04-22 18:11 | 44.17004 | 21.75152 | 35088 ft | 469 kts | 149° |
| 2026-04-22 18:12 | 44.11481 | 21.80089 | 35080 ft | 469 kts | 149° |
| 2026-04-22 18:12 | 44.06888 | 21.84186 | 35076 ft | 470 kts | 149° |
| 2026-04-22 18:13 | 44.00389 | 21.89969 | 35072 ft | 470 kts | 149° |
| 2026-04-22 18:13 | 43.94880 | 21.94859 | 35072 ft | 470 kts | 149° |
| 2026-04-22 18:14 | 43.89316 | 21.99790 | 35073 ft | 470 kts | 149° |
| 2026-04-22 18:14 | 43.83777 | 22.04684 | 35073 ft | 470 kts | 149° |
| 2026-04-22 18:15 | 43.78246 | 22.09559 | 35072 ft | 469 kts | 148° |
| 2026-04-22 18:15 | 43.72760 | 22.14389 | 35071 ft | 470 kts | 149° |
| 2026-04-22 18:16 | 43.67199 | 22.19271 | 35072 ft | 469 kts | 149° |
| 2026-04-22 18:16 | 43.61650 | 22.24132 | 35072 ft | 469 kts | 149° |
| 2026-04-22 18:17 | 43.56103 | 22.29099 | 35072 ft | 470 kts | 147° |
| 2026-04-22 18:17 | 43.50723 | 22.34202 | 35073 ft | 471 kts | 146° |
| 2026-04-22 18:18 | 43.45316 | 22.39330 | 35072 ft | 470 kts | 147° |
| 2026-04-22 18:18 | 43.39878 | 22.44454 | 35072 ft | 471 kts | 146° |
| 2026-04-22 18:19 | 43.34438 | 22.49561 | 35073 ft | 470 kts | 146° |
| 2026-04-22 18:19 | 43.29019 | 22.54634 | 35073 ft | 470 kts | 147° |
| 2026-04-22 18:20 | 43.23524 | 22.59765 | 35071 ft | 470 kts | 147° |
| 2026-04-22 18:20 | 43.18051 | 22.64864 | 35069 ft | 470 kts | 146° |
| 2026-04-22 18:21 | 43.12497 | 22.70030 | 35065 ft | 471 kts | 147° |
| 2026-04-22 18:21 | 43.06948 | 22.75176 | 35059 ft | 470 kts | 147° |
| 2026-04-22 18:22 | 43.01366 | 22.80341 | 35055 ft | 470 kts | 147° |
| 2026-04-22 18:22 | 42.95806 | 22.85483 | 35049 ft | 469 kts | 148° |
| 2026-04-22 18:23 | 42.90241 | 22.90616 | 35047 ft | 469 kts | 148° |
| 2026-04-22 18:23 | 42.84656 | 22.95752 | 35046 ft | 470 kts | 149° |
| 2026-04-22 18:24 | 42.76302 | 23.03410 | 35047 ft | 468 kts | 149° |
| 2026-04-22 18:25 | 42.68024 | 23.10966 | 35046 ft | 467 kts | 149° |
| 2026-04-22 18:25 | 42.62504 | 23.15992 | 35047 ft | 467 kts | 149° |
| 2026-04-22 18:26 | 42.54278 | 23.23466 | 35045 ft | 467 kts | 149° |
| 2026-04-22 18:26 | 42.48731 | 23.28491 | 35045 ft | 468 kts | 149° |
| 2026-04-22 18:27 | 42.43202 | 23.33493 | 35047 ft | 468 kts | 149° |
| 2026-04-22 18:27 | 42.37680 | 23.38478 | 35046 ft | 467 kts | 149° |
| 2026-04-22 18:28 | 42.32161 | 23.43447 | 35046 ft | 467 kts | 149° |
| 2026-04-22 18:28 | 42.26594 | 23.48449 | 35046 ft | 468 kts | 149° |
| 2026-04-22 18:29 | 42.21009 | 23.53458 | 35045 ft | 468 kts | 149° |
| 2026-04-22 18:29 | 42.15408 | 23.58469 | 35047 ft | 468 kts | 149° |
| 2026-04-22 18:30 | 42.06986 | 23.65984 | 35044 ft | 467 kts | 150° |
| 2026-04-22 18:31 | 42.01379 | 23.70974 | 35045 ft | 467 kts | 150° |
| 2026-04-22 18:31 | 41.95691 | 23.76024 | 35046 ft | 468 kts | 150° |
| 2026-04-22 18:32 | 41.90066 | 23.81009 | 35045 ft | 467 kts | 150° |
| 2026-04-22 18:32 | 41.84512 | 23.85922 | 35042 ft | 467 kts | 150° |